<?xml version='1.0' encoding='UTF-8'?><gpx version="1.1" creator="JPX - https://github.com/jenetics/jpx" xmlns="http://www.topografix.com/GPX/1/1"><trk><trkseg><trkpt lat="37.458370519698626" lon="14.54554731505577"><ele>284.0</ele><time>2026-04-25T15:21:37.99Z</time></trkpt><trkpt lat="37.45832682496779" lon="14.545640158539591"><ele>284.0</ele><time>2026-04-25T15:21:39.989Z</time></trkpt><trkpt lat="37.458265832642745" lon="14.545743481949136"><ele>284.0</ele><time>2026-04-25T15:21:41.989Z</time></trkpt><trkpt lat="37.45821260475489" lon="14.545839761154253"><ele>284.0</ele><time>2026-04-25T15:21:43.989Z</time></trkpt><trkpt lat="37.458150126517374" lon="14.545932217804333"><ele>284.0</ele><time>2026-04-25T15:21:45.989Z</time></trkpt><trkpt lat="37.458091748901595" lon="14.546011521497327"><ele>284.0</ele><time>2026-04-25T15:21:47.989Z</time></trkpt><trkpt lat="37.45803096553393" lon="14.546081139540691"><ele>284.0</ele><time>2026-04-25T15:21:49.989Z</time></trkpt><trkpt lat="37.45797085029914" lon="14.546143051606524"><ele>284.0</ele><time>2026-04-25T15:21:51.989Z</time></trkpt><trkpt lat="37.45790382407362" lon="14.546196050255825"><ele>284.0</ele><time>2026-04-25T15:21:54.989Z</time></trkpt><trkpt lat="37.45784260764715" lon="14.546241860091357"><ele>284.0</ele><time>2026-04-25T15:21:58.989Z</time></trkpt><trkpt lat="37.457777510881925" lon="14.546296797770847"><ele>284.0</ele><time>2026-04-25T15:22:03.989Z</time></trkpt><trkpt lat="37.457702923783316" lon="14.546321136836417"><ele>283.1428571428571</ele><time>2026-04-25T15:22:08.989Z</time></trkpt><trkpt lat="37.45764049454331" lon="14.546347742682887"><ele>282.2857142857143</ele><time>2026-04-25T15:22:11.989Z</time></trkpt><trkpt lat="37.45761693533572" lon="14.546433781448625"><ele>281.42857142857144</ele><time>2026-04-25T15:25:10.986Z</time></trkpt><trkpt lat="37.457564486709174" lon="14.546478939302533"><ele>280.57142857142856</ele><time>2026-04-25T15:25:12.986Z</time></trkpt><trkpt lat="37.45750002084473" lon="14.546527552208355"><ele>279.7142857142857</ele><time>2026-04-25T15:25:14.986Z</time></trkpt><trkpt lat="37.45744215601906" lon="14.546584693526716"><ele>278.85714285714283</ele><time>2026-04-25T15:25:16.986Z</time></trkpt><trkpt lat="37.45737750366889" lon="14.546666520900882"><ele>278.0</ele><time>2026-04-25T15:25:18.986Z</time></trkpt><trkpt lat="37.45733522686079" lon="14.546739123138737"><ele>278.0</ele><time>2026-04-25T15:25:20.986Z</time></trkpt><trkpt lat="37.45726618303479" lon="14.546813650139542"><ele>278.0</ele><time>2026-04-25T15:25:23.986Z</time></trkpt><trkpt lat="37.45721331954326" lon="14.546861050016979"><ele>278.0</ele><time>2026-04-25T15:25:26.986Z</time></trkpt><trkpt lat="37.45714637746922" lon="14.54685754581976"><ele>278.0</ele><time>2026-04-25T15:25:29.986Z</time></trkpt><trkpt lat="37.45707422940369" lon="14.54681026016521"><ele>278.0</ele><time>2026-04-25T15:25:31.986Z</time></trkpt><trkpt lat="37.45702460921541" lon="14.546755381791556"><ele>278.0</ele><time>2026-04-25T15:25:32.986Z</time></trkpt><trkpt lat="37.456929843286005" lon="14.546653400544107"><ele>278.5</ele><time>2026-04-25T15:25:34.986Z</time></trkpt><trkpt lat="37.45687976979402" lon="14.54660363510022"><ele>279.0</ele><time>2026-04-25T15:25:35.986Z</time></trkpt><trkpt lat="37.45682536896478" lon="14.546546196870988"><ele>279.5</ele><time>2026-04-25T15:25:36.986Z</time></trkpt><trkpt lat="37.456759485551714" lon="14.546463621051117"><ele>280.0</ele><time>2026-04-25T15:25:38.986Z</time></trkpt><trkpt lat="37.45669375361785" lon="14.54638850891686"><ele>280.5</ele><time>2026-04-25T15:25:40.986Z</time></trkpt><trkpt lat="37.456631639365185" lon="14.54629808536237"><ele>281.0</ele><time>2026-04-25T15:25:42.986Z</time></trkpt><trkpt lat="37.456579236801154" lon="14.54622946242271"><ele>278.7142857142857</ele><time>2026-04-25T15:25:45.986Z</time></trkpt><trkpt lat="37.45652620862578" lon="14.546181899523894"><ele>276.42857142857144</ele><time>2026-04-25T15:25:47.986Z</time></trkpt><trkpt lat="37.45645432532506" lon="14.546172357792038"><ele>274.1428571428571</ele><time>2026-04-25T15:25:49.986Z</time></trkpt><trkpt lat="37.45638328612664" lon="14.546155944115998"><ele>271.8571428571429</ele><time>2026-04-25T15:25:51.986Z</time></trkpt><trkpt lat="37.45631440268196" lon="14.546137653268138"><ele>269.57142857142856</ele><time>2026-04-25T15:25:53.985Z</time></trkpt><trkpt lat="37.456246212942034" lon="14.546154760173131"><ele>267.2857142857143</ele><time>2026-04-25T15:25:55.985Z</time></trkpt><trkpt lat="37.456177475011906" lon="14.546177226464692"><ele>265.0</ele><time>2026-04-25T15:25:57.985Z</time></trkpt><trkpt lat="37.45609607465087" lon="14.546157014204795"><ele>265.0</ele><time>2026-04-25T15:25:59.985Z</time></trkpt><trkpt lat="37.45601973860859" lon="14.546147634889813"><ele>265.0</ele><time>2026-04-25T15:26:01.985Z</time></trkpt><trkpt lat="37.455957384060405" lon="14.546225574571842"><ele>265.0</ele><time>2026-04-25T15:26:03.985Z</time></trkpt><trkpt lat="37.45588689339995" lon="14.5462101272741"><ele>265.0</ele><time>2026-04-25T15:26:07.985Z</time></trkpt><trkpt lat="37.45580465129633" lon="14.54619947717394"><ele>265.0</ele><time>2026-04-25T15:26:16.985Z</time></trkpt><trkpt lat="37.455735656466594" lon="14.54619482054811"><ele>265.0</ele><time>2026-04-25T15:26:20.985Z</time></trkpt><trkpt lat="37.455642735827" lon="14.54617707277065"><ele>265.0</ele><time>2026-04-25T15:26:23.985Z</time></trkpt><trkpt lat="37.455550734461376" lon="14.546127539141354"><ele>265.0</ele><time>2026-04-25T15:26:25.985Z</time></trkpt><trkpt lat="37.45556966850295" lon="14.545959531378664"><ele>265.0</ele><time>2026-04-25T15:26:26.985Z</time></trkpt><trkpt lat="37.45552627618323" lon="14.545892361848583"><ele>265.0</ele><time>2026-04-25T15:26:28.985Z</time></trkpt><trkpt lat="37.45546093821544" lon="14.545751489408941"><ele>265.0</ele><time>2026-04-25T15:26:31.985Z</time></trkpt><trkpt lat="37.45538270313361" lon="14.545646496392687"><ele>265.2</ele><time>2026-04-25T15:26:32.985Z</time></trkpt><trkpt lat="37.4552333683476" lon="14.545561626775221"><ele>265.4</ele><time>2026-04-25T15:26:34.985Z</time></trkpt><trkpt lat="37.4551532252772" lon="14.545538723349162"><ele>265.6</ele><time>2026-04-25T15:26:36.985Z</time></trkpt><trkpt lat="37.45507244169458" lon="14.545518775547775"><ele>265.8</ele><time>2026-04-25T15:26:38.985Z</time></trkpt><trkpt lat="37.455008787932556" lon="14.545542429912794"><ele>266.0</ele><time>2026-04-25T15:26:40.985Z</time></trkpt><trkpt lat="37.45507990745853" lon="14.545551091492884"><ele>266.0</ele><time>2026-04-25T15:26:41.985Z</time></trkpt><trkpt lat="37.45502098914109" lon="14.54551458808175"><ele>266.0</ele><time>2026-04-25T15:26:43.985Z</time></trkpt><trkpt lat="37.45491302134129" lon="14.545536657128336"><ele>266.0</ele><time>2026-04-25T15:26:44.985Z</time></trkpt><trkpt lat="37.45483857129798" lon="14.545563710614992"><ele>266.0</ele><time>2026-04-25T15:26:47.985Z</time></trkpt><trkpt lat="37.45476901897073" lon="14.545588984328573"><ele>266.0</ele><time>2026-04-25T15:26:50.985Z</time></trkpt><trkpt lat="37.454823180654145" lon="14.545829251455086"><ele>266.0</ele><time>2026-04-25T15:26:55.985Z</time></trkpt><trkpt lat="37.45473060621952" lon="14.545631431962217"><ele>266.0</ele><time>2026-04-25T15:26:56.984Z</time></trkpt><trkpt lat="37.45483273014306" lon="14.545702177789368"><ele>266.0</ele><time>2026-04-25T15:26:59.984Z</time></trkpt><trkpt lat="37.454882943925426" lon="14.545623539068604"><ele>266.0</ele><time>2026-04-25T15:27:01.984Z</time></trkpt><trkpt lat="37.45495867505757" lon="14.545517342520743"><ele>266.0</ele><time>2026-04-25T15:27:03.984Z</time></trkpt><trkpt lat="37.455032263932964" lon="14.54544445252041"><ele>266.0</ele><time>2026-04-25T15:27:05.984Z</time></trkpt><trkpt lat="37.4551013754182" lon="14.545368658378003"><ele>266.0</ele><time>2026-04-25T15:27:07.984Z</time></trkpt><trkpt lat="37.455173752846406" lon="14.545297148388073"><ele>266.0</ele><time>2026-04-25T15:27:09.984Z</time></trkpt><trkpt lat="37.45524519826182" lon="14.545204012083994"><ele>266.0</ele><time>2026-04-25T15:27:11.984Z</time></trkpt><trkpt lat="37.45527768536545" lon="14.545132295097499"><ele>266.0</ele><time>2026-04-25T15:27:13.984Z</time></trkpt><trkpt lat="37.455250712995586" lon="14.545014671871655"><ele>263.33333333333337</ele><time>2026-04-25T15:27:16.984Z</time></trkpt><trkpt lat="37.45519727101115" lon="14.544934489295281"><ele>260.6666666666667</ele><time>2026-04-25T15:27:18.984Z</time></trkpt><trkpt lat="37.455145138255595" lon="14.544865055237938"><ele>258.0</ele><time>2026-04-25T15:27:20.984Z</time></trkpt><trkpt lat="37.45509253111787" lon="14.544800403326395"><ele>255.33333333333331</ele><time>2026-04-25T15:27:22.984Z</time></trkpt><trkpt lat="37.45503522379758" lon="14.544725331619393"><ele>252.66666666666666</ele><time>2026-04-25T15:27:24.984Z</time></trkpt><trkpt lat="37.45496654529239" lon="14.544632853538085"><ele>250.0</ele><time>2026-04-25T15:27:26.984Z</time></trkpt><trkpt lat="37.454900390280095" lon="14.544555191987243"><ele>247.16666666666666</ele><time>2026-04-25T15:27:28.984Z</time></trkpt><trkpt lat="37.45484832426537" lon="14.544481786557862"><ele>244.33333333333331</ele><time>2026-04-25T15:27:30.984Z</time></trkpt><trkpt lat="37.45482060305244" lon="14.544367483342242"><ele>241.5</ele><time>2026-04-25T15:27:33.984Z</time></trkpt><trkpt lat="37.4548009430237" lon="14.544279962925442"><ele>238.66666666666669</ele><time>2026-04-25T15:27:35.984Z</time></trkpt><trkpt lat="37.45475734461922" lon="14.544211953909663"><ele>235.83333333333334</ele><time>2026-04-25T15:27:37.984Z</time></trkpt><trkpt lat="37.45472393484597" lon="14.544134310629705"><ele>233.0</ele><time>2026-04-25T15:27:39.984Z</time></trkpt><trkpt lat="37.4546779594159" lon="14.54404097665362"><ele>233.0</ele><time>2026-04-25T15:27:42.984Z</time></trkpt><trkpt lat="37.45465283816875" lon="14.543959428755796"><ele>233.0</ele><time>2026-04-25T15:27:44.984Z</time></trkpt><trkpt lat="37.45464818515447" lon="14.543868377261331"><ele>233.0</ele><time>2026-04-25T15:27:48.984Z</time></trkpt><trkpt lat="37.45460143702342" lon="14.543805078609708"><ele>233.0</ele><time>2026-04-25T15:27:50.984Z</time></trkpt><trkpt lat="37.45452054951913" lon="14.543790299198324"><ele>233.0</ele><time>2026-04-25T15:27:53.984Z</time></trkpt><trkpt lat="37.45444815868051" lon="14.543798068155425"><ele>233.0</ele><time>2026-04-25T15:27:57.984Z</time></trkpt><trkpt lat="37.45438043871235" lon="14.54379855708711"><ele>233.0</ele><time>2026-04-25T15:28:04.983Z</time></trkpt><trkpt lat="37.454311755833494" lon="14.543831219799259"><ele>232.50000000000003</ele><time>2026-04-25T15:28:09.988Z</time></trkpt><trkpt lat="37.45422700423012" lon="14.543833959155343"><ele>232.0</ele><time>2026-04-25T15:28:15.992Z</time></trkpt><trkpt lat="37.454149270768596" lon="14.543882650778485"><ele>231.5</ele><time>2026-04-25T15:28:18.994Z</time></trkpt><trkpt lat="37.454086048005" lon="14.543916997749012"><ele>231.0</ele><time>2026-04-25T15:28:20.995Z</time></trkpt><trkpt lat="37.45401832834051" lon="14.543924711293798"><ele>230.50000000000003</ele><time>2026-04-25T15:28:22.995Z</time></trkpt><trkpt lat="37.45393030258743" lon="14.543936867366169"><ele>230.0</ele><time>2026-04-25T15:28:25.996Z</time></trkpt><trkpt lat="37.45384786358443" lon="14.543947866784878"><ele>228.83333333333334</ele><time>2026-04-25T15:28:28.997Z</time></trkpt><trkpt lat="37.45378051513111" lon="14.54395748890562"><ele>227.66666666666669</ele><time>2026-04-25T15:28:30.997Z</time></trkpt><trkpt lat="37.45370311742216" lon="14.543980911144663"><ele>226.5</ele><time>2026-04-25T15:28:32.998Z</time></trkpt><trkpt lat="37.453624078342784" lon="14.544002148080311"><ele>225.33333333333331</ele><time>2026-04-25T15:28:34.998Z</time></trkpt><trkpt lat="37.45354875494512" lon="14.5440320806453"><ele>224.16666666666666</ele><time>2026-04-25T15:28:36.998Z</time></trkpt><trkpt lat="37.45346976568193" lon="14.54407105558049"><ele>223.0</ele><time>2026-04-25T15:28:38.998Z</time></trkpt><trkpt lat="37.45338247336589" lon="14.544101061489755"><ele>222.99999999999997</ele><time>2026-04-25T15:28:40.999Z</time></trkpt><trkpt lat="37.45329310939343" lon="14.544101217557047"><ele>223.0</ele><time>2026-04-25T15:28:42.999Z</time></trkpt><trkpt lat="37.45319787021818" lon="14.544084684060035"><ele>223.0</ele><time>2026-04-25T15:28:44.999Z</time></trkpt><trkpt lat="37.45313805751118" lon="14.544059772089934"><ele>223.0</ele><time>2026-04-25T15:28:45.999Z</time></trkpt><trkpt lat="37.45301881001345" lon="14.544010092253439"><ele>222.99999999999997</ele><time>2026-04-25T15:28:47.999Z</time></trkpt><trkpt lat="37.452953888344524" lon="14.543989391709626"><ele>223.0</ele><time>2026-04-25T15:28:48.999Z</time></trkpt><trkpt lat="37.45288542860819" lon="14.543960764219053"><ele>222.4</ele><time>2026-04-25T15:28:49.999Z</time></trkpt><trkpt lat="37.45278815837809" lon="14.543919167998109"><ele>221.8</ele><time>2026-04-25T15:28:51.999Z</time></trkpt><trkpt lat="37.45269313089016" lon="14.5438965228664"><ele>221.2</ele><time>2026-04-25T15:28:53.999Z</time></trkpt><trkpt lat="37.45262934701338" lon="14.543904976612406"><ele>220.6</ele><time>2026-04-25T15:28:55.999Z</time></trkpt><trkpt lat="37.45254434254624" lon="14.543934760733388"><ele>220.0</ele><time>2026-04-25T15:28:57.999Z</time></trkpt><trkpt lat="37.4524327117605" lon="14.543967551862028"><ele>220.0</ele><time>2026-04-25T15:29:00Z</time></trkpt><trkpt lat="37.452325858898384" lon="14.544013161210403"><ele>220.0</ele><time>2026-04-25T15:29:02Z</time></trkpt><trkpt lat="37.45223782179304" lon="14.544057395440754"><ele>220.0</ele><time>2026-04-25T15:29:04Z</time></trkpt><trkpt lat="37.45214542481365" lon="14.544114766657678"><ele>220.0</ele><time>2026-04-25T15:29:06Z</time></trkpt><trkpt lat="37.45206910497999" lon="14.544174797602231"><ele>220.0</ele><time>2026-04-25T15:29:08Z</time></trkpt><trkpt lat="37.45198571702636" lon="14.544192971794518"><ele>219.49999999999997</ele><time>2026-04-25T15:29:10Z</time></trkpt><trkpt lat="37.451895587125165" lon="14.544213745548726"><ele>219.0</ele><time>2026-04-25T15:29:12Z</time></trkpt><trkpt lat="37.4517943253427" lon="14.544226579694895"><ele>218.5</ele><time>2026-04-25T15:29:14Z</time></trkpt><trkpt lat="37.45170255979843" lon="14.544224641235758"><ele>218.0</ele><time>2026-04-25T15:29:16Z</time></trkpt><trkpt lat="37.45162400081807" lon="14.54423901165638"><ele>217.49999999999997</ele><time>2026-04-25T15:29:18Z</time></trkpt><trkpt lat="37.4515463507632" lon="14.544258000790853"><ele>217.0</ele><time>2026-04-25T15:29:20Z</time></trkpt><trkpt lat="37.45148387508467" lon="14.544233436337864"><ele>216.99999999999997</ele><time>2026-04-25T15:29:23Z</time></trkpt><trkpt lat="37.45140954786315" lon="14.544208260511775"><ele>217.0</ele><time>2026-04-25T15:29:31Z</time></trkpt><trkpt lat="37.45137342155012" lon="14.544283074242761"><ele>217.0</ele><time>2026-04-25T15:29:39Z</time></trkpt><trkpt lat="37.45137338860365" lon="14.544407134749191"><ele>217.0</ele><time>2026-04-25T15:29:42Z</time></trkpt><trkpt lat="37.45134526424454" lon="14.544527331139719"><ele>216.99999999999997</ele><time>2026-04-25T15:29:44Z</time></trkpt><trkpt lat="37.45132027091357" lon="14.544632252678674"><ele>217.0</ele><time>2026-04-25T15:29:46Z</time></trkpt><trkpt lat="37.451312096006106" lon="14.544733135226148"><ele>214.5</ele><time>2026-04-25T15:29:48Z</time></trkpt><trkpt lat="37.45128651341261" lon="14.54485124246851"><ele>212.0</ele><time>2026-04-25T15:29:50Z</time></trkpt><trkpt lat="37.45124084332059" lon="14.544998264669147"><ele>209.5</ele><time>2026-04-25T15:29:52Z</time></trkpt><trkpt lat="37.45120973855674" lon="14.545142460363047"><ele>207.0</ele><time>2026-04-25T15:29:54Z</time></trkpt><trkpt lat="37.45118600827541" lon="14.545286642299237"><ele>208.2</ele><time>2026-04-25T15:29:56Z</time></trkpt><trkpt lat="37.451150782142065" lon="14.54544609846825"><ele>209.39999999999998</ele><time>2026-04-25T15:29:58Z</time></trkpt><trkpt lat="37.451130790329145" lon="14.545521879272266"><ele>210.60000000000002</ele><time>2026-04-25T15:29:59Z</time></trkpt><trkpt lat="37.45109842735689" lon="14.545658989540266"><ele>211.8</ele><time>2026-04-25T15:30:01Z</time></trkpt><trkpt lat="37.45106432394299" lon="14.545762027480114"><ele>213.0</ele><time>2026-04-25T15:30:03Z</time></trkpt><trkpt lat="37.45102824819971" lon="14.545861998387332"><ele>213.0</ele><time>2026-04-25T15:30:04.999Z</time></trkpt><trkpt lat="37.451000864126634" lon="14.54596184017567"><ele>213.0</ele><time>2026-04-25T15:30:06.999Z</time></trkpt><trkpt lat="37.45097824950437" lon="14.546069332555296"><ele>213.0</ele><time>2026-04-25T15:30:08.999Z</time></trkpt><trkpt lat="37.4509695827843" lon="14.546158468018367"><ele>213.0</ele><time>2026-04-25T15:30:10.999Z</time></trkpt><trkpt lat="37.450977971278846" lon="14.54626170084512"><ele>213.0</ele><time>2026-04-25T15:30:13.999Z</time></trkpt><trkpt lat="37.450992878733125" lon="14.546340464178515"><ele>213.0</ele><time>2026-04-25T15:30:16.999Z</time></trkpt><trkpt lat="37.45101440350482" lon="14.546418699754364"><ele>213.5</ele><time>2026-04-25T15:30:18.999Z</time></trkpt><trkpt lat="37.451039255974074" lon="14.546525499225963"><ele>214.0</ele><time>2026-04-25T15:30:21.999Z</time></trkpt><trkpt lat="37.451081861918844" lon="14.546615762954016"><ele>214.5</ele><time>2026-04-25T15:30:23.999Z</time></trkpt><trkpt lat="37.45111248208103" lon="14.546695482117242"><ele>215.0</ele><time>2026-04-25T15:30:25.999Z</time></trkpt><trkpt lat="37.45116602753053" lon="14.546771929318655"><ele>215.5</ele><time>2026-04-25T15:30:27.999Z</time></trkpt><trkpt lat="37.451203969628985" lon="14.5468537684363"><ele>216.0</ele><time>2026-04-25T15:30:31.999Z</time></trkpt><trkpt lat="37.45119335288889" lon="14.546938000207923"><ele>216.0</ele><time>2026-04-25T15:30:35.999Z</time></trkpt><trkpt lat="37.45114034051886" lon="14.547022012481126"><ele>216.0</ele><time>2026-04-25T15:30:38.999Z</time></trkpt><trkpt lat="37.45108106922854" lon="14.547086294862792"><ele>216.0</ele><time>2026-04-25T15:30:41.999Z</time></trkpt><trkpt lat="37.4510352898909" lon="14.547142282745261"><ele>216.0</ele><time>2026-04-25T15:30:43.999Z</time></trkpt><trkpt lat="37.450971168396116" lon="14.54723277005635"><ele>216.0</ele><time>2026-04-25T15:30:46.999Z</time></trkpt><trkpt lat="37.450921918919995" lon="14.547298456696033"><ele>216.0</ele><time>2026-04-25T15:30:48.999Z</time></trkpt><trkpt lat="37.4508734154206" lon="14.547361497922862"><ele>216.83333333333334</ele><time>2026-04-25T15:30:50.999Z</time></trkpt><trkpt lat="37.450824712038724" lon="14.547420981521814"><ele>217.66666666666669</ele><time>2026-04-25T15:30:52.999Z</time></trkpt><trkpt lat="37.450766583095515" lon="14.547474906754866"><ele>218.5</ele><time>2026-04-25T15:30:54.999Z</time></trkpt><trkpt lat="37.45070126354688" lon="14.547525780154427"><ele>219.33333333333334</ele><time>2026-04-25T15:30:56.999Z</time></trkpt><trkpt lat="37.450644678674706" lon="14.547594305618071"><ele>220.16666666666669</ele><time>2026-04-25T15:30:58.999Z</time></trkpt><trkpt lat="37.45058187088903" lon="14.547664695542908"><ele>221.0</ele><time>2026-04-25T15:31:00.999Z</time></trkpt><trkpt lat="37.45052148151982" lon="14.547731196418438"><ele>221.4</ele><time>2026-04-25T15:31:02.999Z</time></trkpt><trkpt lat="37.45045428402183" lon="14.547811217246574"><ele>221.8</ele><time>2026-04-25T15:31:04.999Z</time></trkpt><trkpt lat="37.45037885483024" lon="14.547894950216802"><ele>222.20000000000002</ele><time>2026-04-25T15:31:06.999Z</time></trkpt><trkpt lat="37.45029782389843" lon="14.547953688953012"><ele>222.60000000000002</ele><time>2026-04-25T15:31:08.999Z</time></trkpt><trkpt lat="37.45022085240716" lon="14.548019941031729"><ele>223.0</ele><time>2026-04-25T15:31:10.999Z</time></trkpt><trkpt lat="37.450148954302634" lon="14.548093342742932"><ele>223.0</ele><time>2026-04-25T15:31:12.999Z</time></trkpt><trkpt lat="37.450067931631864" lon="14.548171995926142"><ele>223.0</ele><time>2026-04-25T15:31:14.999Z</time></trkpt><trkpt lat="37.449972655706915" lon="14.548248124303285"><ele>223.0</ele><time>2026-04-25T15:31:16.999Z</time></trkpt><trkpt lat="37.44988615174307" lon="14.548305902336097"><ele>223.0</ele><time>2026-04-25T15:31:18.999Z</time></trkpt><trkpt lat="37.449807014726964" lon="14.548349939159355"><ele>223.0</ele><time>2026-04-25T15:31:20.999Z</time></trkpt><trkpt lat="37.44974448434246" lon="14.548413112296648"><ele>222.99999999999997</ele><time>2026-04-25T15:31:22.999Z</time></trkpt><trkpt lat="37.44969165850699" lon="14.548477731345082"><ele>223.0</ele><time>2026-04-25T15:31:24.999Z</time></trkpt><trkpt lat="37.44961128513822" lon="14.548525200096957"><ele>223.0</ele><time>2026-04-25T15:31:27.999Z</time></trkpt><trkpt lat="37.44954211173459" lon="14.548595896306422"><ele>223.0</ele><time>2026-04-25T15:31:30.999Z</time></trkpt><trkpt lat="37.44950786471656" lon="14.548667957683216"><ele>222.99999999999997</ele><time>2026-04-25T15:31:32.999Z</time></trkpt><trkpt lat="37.449491914716866" lon="14.548768625595477"><ele>223.0</ele><time>2026-04-25T15:31:34.999Z</time></trkpt><trkpt lat="37.4494555139387" lon="14.548862884254682"><ele>221.16666666666666</ele><time>2026-04-25T15:31:36.999Z</time></trkpt><trkpt lat="37.44942310764368" lon="14.548968666486367"><ele>219.33333333333331</ele><time>2026-04-25T15:31:38.999Z</time></trkpt><trkpt lat="37.4494027488239" lon="14.549062978820029"><ele>217.5</ele><time>2026-04-25T15:31:40.999Z</time></trkpt><trkpt lat="37.44936091787238" lon="14.549143568757911"><ele>215.66666666666669</ele><time>2026-04-25T15:31:42.999Z</time></trkpt><trkpt lat="37.44932139923801" lon="14.54924981940341"><ele>213.83333333333334</ele><time>2026-04-25T15:31:44.999Z</time></trkpt><trkpt lat="37.44925854963992" lon="14.5493567658561"><ele>212.0</ele><time>2026-04-25T15:31:46.999Z</time></trkpt><trkpt lat="37.449186347004584" lon="14.549471566232807"><ele>213.16666666666669</ele><time>2026-04-25T15:31:48.999Z</time></trkpt><trkpt lat="37.449127267831265" lon="14.54959351826378"><ele>214.33333333333334</ele><time>2026-04-25T15:31:50.999Z</time></trkpt><trkpt lat="37.44905541711928" lon="14.549627256360528"><ele>215.5</ele><time>2026-04-25T15:31:52.999Z</time></trkpt><trkpt lat="37.44902999570193" lon="14.549720356925649"><ele>216.66666666666669</ele><time>2026-04-25T15:31:54.999Z</time></trkpt><trkpt lat="37.449009659696586" lon="14.54979602044231"><ele>217.83333333333334</ele><time>2026-04-25T15:31:56.999Z</time></trkpt><trkpt lat="37.44902502153354" lon="14.549905072759882"><ele>219.0</ele><time>2026-04-25T15:31:58.999Z</time></trkpt><trkpt lat="37.449054705795646" lon="14.550020823986042"><ele>219.0</ele><time>2026-04-25T15:32:00.999Z</time></trkpt><trkpt lat="37.449088236053726" lon="14.550144852867735"><ele>218.99999999999997</ele><time>2026-04-25T15:32:02.999Z</time></trkpt><trkpt lat="37.449117649760915" lon="14.550283389239912"><ele>218.99999999999997</ele><time>2026-04-25T15:32:04.999Z</time></trkpt><trkpt lat="37.449121859108054" lon="14.550430864881886"><ele>219.0</ele><time>2026-04-25T15:32:06.999Z</time></trkpt><trkpt lat="37.449125142203584" lon="14.55051498549696"><ele>219.0</ele><time>2026-04-25T15:32:07.999Z</time></trkpt><trkpt lat="37.449128530804664" lon="14.550605928972194"><ele>219.33333333333334</ele><time>2026-04-25T15:32:08.999Z</time></trkpt><trkpt lat="37.449102168554276" lon="14.550760522288126"><ele>219.66666666666669</ele><time>2026-04-25T15:32:10.999Z</time></trkpt><trkpt lat="37.44911606928715" lon="14.550858891856626"><ele>220.0</ele><time>2026-04-25T15:32:11.999Z</time></trkpt><trkpt lat="37.44911350418722" lon="14.55095231555209"><ele>220.33333333333334</ele><time>2026-04-25T15:32:12.999Z</time></trkpt><trkpt lat="37.44912664044423" lon="14.551048457482503"><ele>220.66666666666669</ele><time>2026-04-25T15:32:13.998Z</time></trkpt><trkpt lat="37.44913949073265" lon="14.55114185570549"><ele>221.0</ele><time>2026-04-25T15:32:14.998Z</time></trkpt><trkpt lat="37.44914707753467" lon="14.551227206150347"><ele>220.16666666666669</ele><time>2026-04-25T15:32:15.998Z</time></trkpt><trkpt lat="37.4491716572228" lon="14.551303688164692"><ele>219.33333333333334</ele><time>2026-04-25T15:32:16.998Z</time></trkpt><trkpt lat="37.44923206705209" lon="14.551428603935697"><ele>218.5</ele><time>2026-04-25T15:32:18.998Z</time></trkpt><trkpt lat="37.449222548957714" lon="14.55151458030656"><ele>217.66666666666669</ele><time>2026-04-25T15:32:20.998Z</time></trkpt><trkpt lat="37.449241244940325" lon="14.55162407013355"><ele>216.83333333333334</ele><time>2026-04-25T15:32:22.998Z</time></trkpt><trkpt lat="37.44927190292631" lon="14.551698470732225"><ele>216.0</ele><time>2026-04-25T15:32:23.998Z</time></trkpt><trkpt lat="37.44931409886396" lon="14.55177973067563"><ele>216.0</ele><time>2026-04-25T15:32:24.998Z</time></trkpt><trkpt lat="37.44935084872832" lon="14.551849401746887"><ele>216.0</ele><time>2026-04-25T15:32:25.998Z</time></trkpt><trkpt lat="37.44938776052149" lon="14.551915758590145"><ele>216.0</ele><time>2026-04-25T15:32:26.998Z</time></trkpt><trkpt lat="37.44942029521653" lon="14.551985282411923"><ele>216.0</ele><time>2026-04-25T15:32:27.998Z</time></trkpt><trkpt lat="37.449473172974294" lon="14.552106298840526"><ele>216.0</ele><time>2026-04-25T15:32:29.998Z</time></trkpt><trkpt lat="37.44949608344667" lon="14.552203699855115"><ele>216.0</ele><time>2026-04-25T15:32:32.998Z</time></trkpt><trkpt lat="37.44947189758441" lon="14.552299904204952"><ele>214.83333333333334</ele><time>2026-04-25T15:32:34.998Z</time></trkpt><trkpt lat="37.44941340681167" lon="14.552378666259484"><ele>213.66666666666669</ele><time>2026-04-25T15:32:36.998Z</time></trkpt><trkpt lat="37.44938138110875" lon="14.552471349383232"><ele>212.5</ele><time>2026-04-25T15:32:38.998Z</time></trkpt><trkpt lat="37.44938196114723" lon="14.552553560741071"><ele>211.33333333333334</ele><time>2026-04-25T15:32:40.998Z</time></trkpt><trkpt lat="37.44940319788946" lon="14.552635486519353"><ele>210.16666666666669</ele><time>2026-04-25T15:32:42.998Z</time></trkpt><trkpt lat="37.44943847181592" lon="14.552709469118385"><ele>209.0</ele><time>2026-04-25T15:32:44.998Z</time></trkpt><trkpt lat="37.4494835326336" lon="14.552806368957544"><ele>208.00000000000003</ele><time>2026-04-25T15:32:46.998Z</time></trkpt><trkpt lat="37.4495220965023" lon="14.552922141648933"><ele>207.0</ele><time>2026-04-25T15:32:48.998Z</time></trkpt><trkpt lat="37.44956905221216" lon="14.552999651537428"><ele>206.0</ele><time>2026-04-25T15:32:49.998Z</time></trkpt><trkpt lat="37.449615054357494" lon="14.553063089193937"><ele>205.0</ele><time>2026-04-25T15:32:50.998Z</time></trkpt><trkpt lat="37.44967363170023" lon="14.553135501042979"><ele>204.00000000000003</ele><time>2026-04-25T15:32:51.998Z</time></trkpt><trkpt lat="37.44971936784911" lon="14.553203804018722"><ele>203.0</ele><time>2026-04-25T15:32:52.998Z</time></trkpt><trkpt lat="37.4497635484199" lon="14.553268388020987"><ele>204.60000000000002</ele><time>2026-04-25T15:32:53.998Z</time></trkpt><trkpt lat="37.44985630545336" lon="14.553413262446607"><ele>206.20000000000002</ele><time>2026-04-25T15:32:55.998Z</time></trkpt><trkpt lat="37.449900509032844" lon="14.553496530180471"><ele>207.8</ele><time>2026-04-25T15:32:56.998Z</time></trkpt><trkpt lat="37.44992107649617" lon="14.553585523891046"><ele>209.4</ele><time>2026-04-25T15:32:57.998Z</time></trkpt><trkpt lat="37.44992799345538" lon="14.553679133924087"><ele>211.0</ele><time>2026-04-25T15:32:58.998Z</time></trkpt><trkpt lat="37.44996855067292" lon="14.553763405199525"><ele>210.99999999999997</ele><time>2026-04-25T15:32:59.998Z</time></trkpt><trkpt lat="37.450030999296764" lon="14.553817331756207"><ele>211.0</ele><time>2026-04-25T15:33:00.998Z</time></trkpt><trkpt lat="37.45009032190538" lon="14.553886068178624"><ele>211.0</ele><time>2026-04-25T15:33:01.998Z</time></trkpt><trkpt lat="37.45013330136837" lon="14.55396183167724"><ele>211.0</ele><time>2026-04-25T15:33:02.998Z</time></trkpt><trkpt lat="37.450172786613805" lon="14.55402403824675"><ele>210.99999999999997</ele><time>2026-04-25T15:33:03.998Z</time></trkpt><trkpt lat="37.45023800822226" lon="14.554100407631243"><ele>211.0</ele><time>2026-04-25T15:33:05.998Z</time></trkpt><trkpt lat="37.4503330777324" lon="14.554107417687709"><ele>210.99999999999997</ele><time>2026-04-25T15:33:10.998Z</time></trkpt><trkpt lat="37.45036205815229" lon="14.554181794404803"><ele>211.0</ele><time>2026-04-25T15:33:12.998Z</time></trkpt><trkpt lat="37.450385504046196" lon="14.554295923824021"><ele>211.0</ele><time>2026-04-25T15:33:14.998Z</time></trkpt><trkpt lat="37.45040123716158" lon="14.554374804918762"><ele>211.0</ele><time>2026-04-25T15:33:16.998Z</time></trkpt><trkpt lat="37.45043216151439" lon="14.554485801918851"><ele>210.99999999999997</ele><time>2026-04-25T15:33:19.998Z</time></trkpt><trkpt lat="37.450468460797616" lon="14.554571423151476"><ele>211.0</ele><time>2026-04-25T15:33:21.998Z</time></trkpt><trkpt lat="37.45051387611454" lon="14.55465688219272"><ele>212.66666666666666</ele><time>2026-04-25T15:33:23.998Z</time></trkpt><trkpt lat="37.450531031658265" lon="14.55473786424397"><ele>214.33333333333331</ele><time>2026-04-25T15:33:25.998Z</time></trkpt><trkpt lat="37.45054575526547" lon="14.554832654077716"><ele>216.0</ele><time>2026-04-25T15:33:27.998Z</time></trkpt><trkpt lat="37.45055502028695" lon="14.554986958475464"><ele>217.66666666666669</ele><time>2026-04-25T15:33:29.998Z</time></trkpt><trkpt lat="37.45057544836378" lon="14.555077273184553"><ele>219.33333333333334</ele><time>2026-04-25T15:33:30.998Z</time></trkpt><trkpt lat="37.45060067422267" lon="14.555173862249243"><ele>221.0</ele><time>2026-04-25T15:33:31.998Z</time></trkpt><trkpt lat="37.450635233353715" lon="14.555269425511911"><ele>221.0</ele><time>2026-04-25T15:33:32.998Z</time></trkpt><trkpt lat="37.450666892341346" lon="14.555357065723243"><ele>221.00000000000003</ele><time>2026-04-25T15:33:33.998Z</time></trkpt><trkpt lat="37.45069724828481" lon="14.555430222017497"><ele>221.00000000000003</ele><time>2026-04-25T15:33:34.998Z</time></trkpt><trkpt lat="37.45076002314374" lon="14.555553346853706"><ele>221.0</ele><time>2026-04-25T15:33:36.998Z</time></trkpt><trkpt lat="37.4508559954391" lon="14.555655027843182"><ele>221.0</ele><time>2026-04-25T15:33:38.998Z</time></trkpt><trkpt lat="37.45095366404577" lon="14.555751123460354"><ele>219.20000000000002</ele><time>2026-04-25T15:33:40.998Z</time></trkpt><trkpt lat="37.45103551997289" lon="14.555861612317882"><ele>217.40000000000003</ele><time>2026-04-25T15:33:42.998Z</time></trkpt><trkpt lat="37.45110714869894" lon="14.555975651508922"><ele>215.6</ele><time>2026-04-25T15:33:44.998Z</time></trkpt><trkpt lat="37.45118731471309" lon="14.556084627525252"><ele>213.8</ele><time>2026-04-25T15:33:46.998Z</time></trkpt><trkpt lat="37.451236626863675" lon="14.556139693053622"><ele>212.0</ele><time>2026-04-25T15:33:47.998Z</time></trkpt><trkpt lat="37.451308173189396" lon="14.556209072173786"><ele>211.39999999999998</ele><time>2026-04-25T15:33:49.998Z</time></trkpt><trkpt lat="37.4513678435471" lon="14.556278481167553"><ele>210.79999999999998</ele><time>2026-04-25T15:33:51.998Z</time></trkpt><trkpt lat="37.45138650462539" lon="14.556386804576357"><ele>210.2</ele><time>2026-04-25T15:33:53.998Z</time></trkpt><trkpt lat="37.45144920118992" lon="14.556449681336595"><ele>209.6</ele><time>2026-04-25T15:33:56.998Z</time></trkpt><trkpt lat="37.45149863414065" lon="14.55657191082857"><ele>209.0</ele><time>2026-04-25T15:33:59.998Z</time></trkpt><trkpt lat="37.45149997985681" lon="14.556706353311442"><ele>209.00000000000003</ele><time>2026-04-25T15:34:02.998Z</time></trkpt><trkpt lat="37.451507747431016" lon="14.556820929542626"><ele>209.0</ele><time>2026-04-25T15:34:06.998Z</time></trkpt><trkpt lat="37.45151993983526" lon="14.556906089061552"><ele>209.0</ele><time>2026-04-25T15:34:09.998Z</time></trkpt><trkpt lat="37.45147303089802" lon="14.55683925699395"><ele>209.0</ele><time>2026-04-25T15:39:11.998Z</time></trkpt><trkpt lat="37.45145849562095" lon="14.556752645606817"><ele>209.00000000000003</ele><time>2026-04-25T15:39:15.998Z</time></trkpt><trkpt lat="37.45142979533469" lon="14.556680951367374"><ele>209.0</ele><time>2026-04-25T15:39:20.998Z</time></trkpt><trkpt lat="37.451394970413034" lon="14.556579178689917"><ele>209.0</ele><time>2026-04-25T15:39:25.998Z</time></trkpt><trkpt lat="37.45138309538351" lon="14.556493874282637"><ele>209.0</ele><time>2026-04-25T15:39:31.998Z</time></trkpt><trkpt lat="37.45133367323045" lon="14.556390042968495"><ele>209.0</ele><time>2026-04-25T15:39:40.997Z</time></trkpt><trkpt lat="37.45136982882123" lon="14.556317258370894"><ele>209.0</ele><time>2026-04-25T15:39:47.997Z</time></trkpt><trkpt lat="37.45133701267485" lon="14.556215892784033"><ele>209.0</ele><time>2026-04-25T15:40:49.997Z</time></trkpt><trkpt lat="37.45132690115748" lon="14.556134943290887"><ele>222.0</ele><time>2026-04-25T15:40:53.997Z</time></trkpt></trkseg></trk></gpx>